sensor_id;sensor_type;location;lat;lon;timestamp;P1;durP1;ratioP1;P2;durP2;ratioP2
20298;SDS011;10308;42.688;23.256;2023-07-13T00:02:31;7.03;;;5.53;;
20298;SDS011;10308;42.688;23.256;2023-07-13T00:05:18;6.82;;;5.30;;
20298;SDS011;10308;42.688;23.256;2023-07-13T00:08:05;6.32;;;5.75;;
20298;SDS011;10308;42.688;23.256;2023-07-13T00:10:53;6.45;;;5.70;;
20298;SDS011;10308;42.688;23.256;2023-07-13T00:13:39;5.70;;;5.20;;
20298;SDS011;10308;42.688;23.256;2023-07-13T00:16:25;7.00;;;5.63;;
20298;SDS011;10308;42.688;23.256;2023-07-13T00:19:11;7.25;;;5.68;;
20298;SDS011;10308;42.688;23.256;2023-07-13T00:21:58;6.93;;;5.50;;
20298;SDS011;10308;42.688;23.256;2023-07-13T00:24:45;5.90;;;5.13;;
20298;SDS011;10308;42.688;23.256;2023-07-13T00:27:31;6.13;;;5.53;;
20298;SDS011;10308;42.688;23.256;2023-07-13T00:30:20;6.07;;;5.47;;
20298;SDS011;10308;42.688;23.256;2023-07-13T00:33:07;5.90;;;5.40;;
20298;SDS011;10308;42.688;23.256;2023-07-13T00:35:53;6.03;;;5.10;;
20298;SDS011;10308;42.688;23.256;2023-07-13T00:38:40;6.82;;;5.18;;
20298;SDS011;10308;42.688;23.256;2023-07-13T00:41:27;5.75;;;5.18;;
20298;SDS011;10308;42.688;23.256;2023-07-13T00:44:14;5.72;;;5.00;;
20298;SDS011;10308;42.688;23.256;2023-07-13T00:47:00;5.65;;;5.03;;
20298;SDS011;10308;42.688;23.256;2023-07-13T00:49:46;5.15;;;4.70;;
20298;SDS011;10308;42.688;23.256;2023-07-13T00:52:31;5.25;;;4.75;;
20298;SDS011;10308;42.688;23.256;2023-07-13T00:55:18;7.28;;;5.28;;
20298;SDS011;10308;42.688;23.256;2023-07-13T00:58:10;5.85;;;5.25;;
20298;SDS011;10308;42.688;23.256;2023-07-13T01:00:57;5.65;;;5.10;;
20298;SDS011;10308;42.688;23.256;2023-07-13T01:03:43;5.82;;;5.10;;
20298;SDS011;10308;42.688;23.256;2023-07-13T01:06:32;6.20;;;4.90;;
20298;SDS011;10308;42.688;23.256;2023-07-13T01:09:17;6.50;;;5.03;;
20298;SDS011;10308;42.688;23.256;2023-07-13T01:12:05;6.55;;;5.25;;
20298;SDS011;10308;42.688;23.256;2023-07-13T01:14:58;7.00;;;5.60;;
20298;SDS011;10308;42.688;23.256;2023-07-13T01:17:46;5.82;;;5.32;;
20298;SDS011;10308;42.688;23.256;2023-07-13T01:20:31;10.35;;;5.88;;
20298;SDS011;10308;42.688;23.256;2023-07-13T01:23:23;5.65;;;4.90;;
20298;SDS011;10308;42.688;23.256;2023-07-13T01:26:12;5.55;;;5.05;;
20298;SDS011;10308;42.688;23.256;2023-07-13T01:28:59;6.72;;;5.10;;
20298;SDS011;10308;42.688;23.256;2023-07-13T01:31:45;5.43;;;4.93;;
20298;SDS011;10308;42.688;23.256;2023-07-13T01:34:31;5.75;;;5.25;;
20298;SDS011;10308;42.688;23.256;2023-07-13T01:37:17;5.40;;;4.90;;
20298;SDS011;10308;42.688;23.256;2023-07-13T01:40:06;6.65;;;5.20;;
20298;SDS011;10308;42.688;23.256;2023-07-13T01:42:52;5.60;;;5.10;;
20298;SDS011;10308;42.688;23.256;2023-07-13T01:45:39;6.88;;;5.55;;
20298;SDS011;10308;42.688;23.256;2023-07-13T01:48:25;5.97;;;5.40;;
20298;SDS011;10308;42.688;23.256;2023-07-13T01:51:11;6.97;;;5.80;;
20298;SDS011;10308;42.688;23.256;2023-07-13T01:53:57;6.15;;;5.60;;
20298;SDS011;10308;42.688;23.256;2023-07-13T01:56:46;5.88;;;5.35;;
20298;SDS011;10308;42.688;23.256;2023-07-13T01:59:31;6.03;;;5.50;;
20298;SDS011;10308;42.688;23.256;2023-07-13T02:02:19;8.43;;;5.30;;
20298;SDS011;10308;42.688;23.256;2023-07-13T02:05:08;6.18;;;5.57;;
20298;SDS011;10308;42.688;23.256;2023-07-13T02:07:54;5.55;;;5.10;;
20298;SDS011;10308;42.688;23.256;2023-07-13T02:10:43;6.32;;;5.38;;
20298;SDS011;10308;42.688;23.256;2023-07-13T02:13:30;8.10;;;5.75;;
20298;SDS011;10308;42.688;23.256;2023-07-13T02:16:17;7.32;;;5.72;;
20298;SDS011;10308;42.688;23.256;2023-07-13T02:19:02;6.80;;;5.85;;
20298;SDS011;10308;42.688;23.256;2023-07-13T02:21:47;6.50;;;5.88;;
20298;SDS011;10308;42.688;23.256;2023-07-13T02:24:35;7.82;;;5.88;;
20298;SDS011;10308;42.688;23.256;2023-07-13T02:27:22;7.28;;;5.72;;
20298;SDS011;10308;42.688;23.256;2023-07-13T02:30:15;9.07;;;5.75;;
20298;SDS011;10308;42.688;23.256;2023-07-13T02:33:02;6.18;;;5.60;;
20298;SDS011;10308;42.688;23.256;2023-07-13T02:35:48;6.90;;;6.30;;
20298;SDS011;10308;42.688;23.256;2023-07-13T02:38:34;6.68;;;5.95;;
20298;SDS011;10308;42.688;23.256;2023-07-13T02:41:21;7.38;;;6.20;;
20298;SDS011;10308;42.688;23.256;2023-07-13T02:44:07;8.15;;;6.88;;
20298;SDS011;10308;42.688;23.256;2023-07-13T02:46:55;8.70;;;5.93;;
20298;SDS011;10308;42.688;23.256;2023-07-13T02:49:41;6.72;;;5.65;;
20298;SDS011;10308;42.688;23.256;2023-07-13T02:52:29;6.93;;;6.15;;
20298;SDS011;10308;42.688;23.256;2023-07-13T02:55:15;7.53;;;6.80;;
20298;SDS011;10308;42.688;23.256;2023-07-13T02:58:01;6.63;;;5.90;;
20298;SDS011;10308;42.688;23.256;2023-07-13T03:00:47;6.20;;;5.57;;
20298;SDS011;10308;42.688;23.256;2023-07-13T03:03:35;7.60;;;5.97;;
20298;SDS011;10308;42.688;23.256;2023-07-13T03:06:24;6.68;;;6.07;;
20298;SDS011;10308;42.688;23.256;2023-07-13T03:09:10;7.50;;;6.80;;
20298;SDS011;10308;42.688;23.256;2023-07-13T03:11:58;7.72;;;6.90;;
20298;SDS011;10308;42.688;23.256;2023-07-13T03:14:45;8.43;;;6.63;;
20298;SDS011;10308;42.688;23.256;2023-07-13T03:17:31;8.60;;;6.57;;
20298;SDS011;10308;42.688;23.256;2023-07-13T03:20:19;7.85;;;7.03;;
20298;SDS011;10308;42.688;23.256;2023-07-13T03:23:04;7.43;;;6.38;;
20298;SDS011;10308;42.688;23.256;2023-07-13T03:26:00;7.70;;;7.00;;
20298;SDS011;10308;42.688;23.256;2023-07-13T03:28:47;9.20;;;7.20;;
20298;SDS011;10308;42.688;23.256;2023-07-13T03:31:34;7.15;;;6.47;;
20298;SDS011;10308;42.688;23.256;2023-07-13T03:34:21;11.35;;;6.95;;
20298;SDS011;10308;42.688;23.256;2023-07-13T03:37:08;8.18;;;7.38;;
20298;SDS011;10308;42.688;23.256;2023-07-13T03:39:55;8.88;;;7.55;;
20298;SDS011;10308;42.688;23.256;2023-07-13T03:42:40;7.82;;;7.10;;
20298;SDS011;10308;42.688;23.256;2023-07-13T03:45:26;10.50;;;7.53;;
20298;SDS011;10308;42.688;23.256;2023-07-13T03:48:13;8.02;;;7.18;;
20298;SDS011;10308;42.688;23.256;2023-07-13T03:50:59;14.80;;;7.55;;
20298;SDS011;10308;42.688;23.256;2023-07-13T03:53:47;12.38;;;7.35;;
20298;SDS011;10308;42.688;23.256;2023-07-13T03:56:34;10.15;;;7.88;;
20298;SDS011;10308;42.688;23.256;2023-07-13T03:59:20;9.70;;;7.90;;
20298;SDS011;10308;42.688;23.256;2023-07-13T04:02:06;9.82;;;7.57;;
20298;SDS011;10308;42.688;23.256;2023-07-13T04:04:53;13.55;;;9.35;;
20298;SDS011;10308;42.688;23.256;2023-07-13T04:07:38;11.65;;;9.88;;
20298;SDS011;10308;42.688;23.256;2023-07-13T04:10:26;12.00;;;9.43;;
20298;SDS011;10308;42.688;23.256;2023-07-13T04:13:15;11.52;;;9.70;;
20298;SDS011;10308;42.688;23.256;2023-07-13T04:16:01;13.45;;;9.68;;
20298;SDS011;10308;42.688;23.256;2023-07-13T04:18:47;11.70;;;9.63;;
20298;SDS011;10308;42.688;23.256;2023-07-13T04:21:35;10.43;;;9.40;;
20298;SDS011;10308;42.688;23.256;2023-07-13T04:24:21;9.88;;;8.77;;
20298;SDS011;10308;42.688;23.256;2023-07-13T04:27:08;12.48;;;9.52;;
20298;SDS011;10308;42.688;23.256;2023-07-13T04:29:53;12.65;;;9.73;;
20298;SDS011;10308;42.688;23.256;2023-07-13T04:32:40;12.70;;;9.90;;
20298;SDS011;10308;42.688;23.256;2023-07-13T04:35:26;11.27;;;9.35;;
20298;SDS011;10308;42.688;23.256;2023-07-13T04:38:13;10.20;;;9.15;;
20298;SDS011;10308;42.688;23.256;2023-07-13T04:41:01;10.23;;;9.20;;
20298;SDS011;10308;42.688;23.256;2023-07-13T04:43:51;11.23;;;9.40;;
20298;SDS011;10308;42.688;23.256;2023-07-13T04:46:37;9.93;;;8.93;;
20298;SDS011;10308;42.688;23.256;2023-07-13T04:49:24;11.20;;;9.65;;
20298;SDS011;10308;42.688;23.256;2023-07-13T04:52:09;10.00;;;8.82;;
20298;SDS011;10308;42.688;23.256;2023-07-13T04:54:56;10.32;;;9.13;;
20298;SDS011;10308;42.688;23.256;2023-07-13T04:57:45;9.70;;;8.75;;
20298;SDS011;10308;42.688;23.256;2023-07-13T05:00:34;9.27;;;8.30;;
20298;SDS011;10308;42.688;23.256;2023-07-13T05:03:20;9.30;;;8.43;;
20298;SDS011;10308;42.688;23.256;2023-07-13T05:06:07;9.23;;;8.38;;
20298;SDS011;10308;42.688;23.256;2023-07-13T05:08:55;9.98;;;8.98;;
20298;SDS011;10308;42.688;23.256;2023-07-13T05:11:40;9.60;;;8.70;;
20298;SDS011;10308;42.688;23.256;2023-07-13T05:14:26;10.40;;;9.43;;
20298;SDS011;10308;42.688;23.256;2023-07-13T05:17:14;9.65;;;8.65;;
20298;SDS011;10308;42.688;23.256;2023-07-13T05:20:02;10.07;;;8.85;;
20298;SDS011;10308;42.688;23.256;2023-07-13T05:22:49;12.55;;;10.05;;
20298;SDS011;10308;42.688;23.256;2023-07-13T05:25:35;11.63;;;9.25;;
20298;SDS011;10308;42.688;23.256;2023-07-13T05:28:22;10.88;;;9.73;;
20298;SDS011;10308;42.688;23.256;2023-07-13T05:31:08;10.75;;;9.57;;
20298;SDS011;10308;42.688;23.256;2023-07-13T05:34:01;11.60;;;9.20;;
20298;SDS011;10308;42.688;23.256;2023-07-13T05:36:47;13.02;;;9.50;;
20298;SDS011;10308;42.688;23.256;2023-07-13T05:39:34;10.85;;;9.75;;
20298;SDS011;10308;42.688;23.256;2023-07-13T05:42:19;10.35;;;9.18;;
20298;SDS011;10308;42.688;23.256;2023-07-13T05:45:06;10.07;;;9.13;;
20298;SDS011;10308;42.688;23.256;2023-07-13T05:47:52;9.88;;;8.90;;
20298;SDS011;10308;42.688;23.256;2023-07-13T05:50:41;10.90;;;9.80;;
20298;SDS011;10308;42.688;23.256;2023-07-13T05:53:26;11.20;;;9.98;;
20298;SDS011;10308;42.688;23.256;2023-07-13T05:56:13;11.40;;;10.38;;
20298;SDS011;10308;42.688;23.256;2023-07-13T05:58:59;10.45;;;9.43;;
20298;SDS011;10308;42.688;23.256;2023-07-13T06:01:46;13.13;;;11.25;;
20298;SDS011;10308;42.688;23.256;2023-07-13T06:04:32;11.82;;;10.77;;
20298;SDS011;10308;42.688;23.256;2023-07-13T06:07:23;12.63;;;11.10;;
20298;SDS011;10308;42.688;23.256;2023-07-13T06:10:08;11.45;;;10.35;;
20298;SDS011;10308;42.688;23.256;2023-07-13T06:12:56;11.98;;;10.73;;
20298;SDS011;10308;42.688;23.256;2023-07-13T06:15:41;13.60;;;10.73;;
20298;SDS011;10308;42.688;23.256;2023-07-13T06:18:28;11.13;;;9.95;;
20298;SDS011;10308;42.688;23.256;2023-07-13T06:21:14;10.77;;;9.80;;
20298;SDS011;10308;42.688;23.256;2023-07-13T06:24:03;10.20;;;9.20;;
20298;SDS011;10308;42.688;23.256;2023-07-13T06:26:49;10.50;;;9.38;;
20298;SDS011;10308;42.688;23.256;2023-07-13T06:29:36;11.43;;;9.45;;
20298;SDS011;10308;42.688;23.256;2023-07-13T06:32:21;12.30;;;9.45;;
20298;SDS011;10308;42.688;23.256;2023-07-13T06:35:08;11.15;;;10.00;;
20298;SDS011;10308;42.688;23.256;2023-07-13T06:37:57;10.68;;;9.60;;
20298;SDS011;10308;42.688;23.256;2023-07-13T06:40:46;12.90;;;9.35;;
20298;SDS011;10308;42.688;23.256;2023-07-13T06:43:31;10.25;;;9.20;;
20298;SDS011;10308;42.688;23.256;2023-07-13T06:46:19;10.95;;;9.77;;
20298;SDS011;10308;42.688;23.256;2023-07-13T06:49:07;11.18;;;10.07;;
20298;SDS011;10308;42.688;23.256;2023-07-13T06:51:54;11.90;;;10.30;;
20298;SDS011;10308;42.688;23.256;2023-07-13T06:54:39;11.85;;;10.68;;
20298;SDS011;10308;42.688;23.256;2023-07-13T06:57:27;12.60;;;10.57;;
20298;SDS011;10308;42.688;23.256;2023-07-13T07:00:15;12.35;;;10.48;;
20298;SDS011;10308;42.688;23.256;2023-07-13T07:03:02;11.95;;;10.80;;
20298;SDS011;10308;42.688;23.256;2023-07-13T07:05:48;12.38;;;10.70;;
20298;SDS011;10308;42.688;23.256;2023-07-13T07:08:35;14.43;;;11.45;;
20298;SDS011;10308;42.688;23.256;2023-07-13T07:11:22;14.00;;;12.60;;
20298;SDS011;10308;42.688;23.256;2023-07-13T07:14:12;12.65;;;11.55;;
20298;SDS011;10308;42.688;23.256;2023-07-13T07:16:57;14.77;;;13.27;;
20298;SDS011;10308;42.688;23.256;2023-07-13T07:19:44;15.25;;;12.93;;
20298;SDS011;10308;42.688;23.256;2023-07-13T07:22:30;14.45;;;12.63;;
20298;SDS011;10308;42.688;23.256;2023-07-13T07:25:17;12.77;;;11.50;;
20298;SDS011;10308;42.688;23.256;2023-07-13T07:28:04;14.48;;;11.95;;
20298;SDS011;10308;42.688;23.256;2023-07-13T07:30:54;13.60;;;12.30;;
20298;SDS011;10308;42.688;23.256;2023-07-13T07:33:41;13.43;;;12.10;;
20298;SDS011;10308;42.688;23.256;2023-07-13T07:36:30;13.07;;;11.75;;
20298;SDS011;10308;42.688;23.256;2023-07-13T07:39:16;12.35;;;11.00;;
20298;SDS011;10308;42.688;23.256;2023-07-13T07:42:03;13.70;;;12.27;;
20298;SDS011;10308;42.688;23.256;2023-07-13T07:44:49;14.50;;;11.38;;
20298;SDS011;10308;42.688;23.256;2023-07-13T07:47:39;14.23;;;12.30;;
20298;SDS011;10308;42.688;23.256;2023-07-13T07:50:25;15.40;;;11.60;;
20298;SDS011;10308;42.688;23.256;2023-07-13T07:53:15;13.15;;;11.55;;
20298;SDS011;10308;42.688;23.256;2023-07-13T07:56:01;13.60;;;12.07;;
20298;SDS011;10308;42.688;23.256;2023-07-13T07:58:47;14.02;;;11.80;;
20298;SDS011;10308;42.688;23.256;2023-07-13T08:01:32;14.05;;;11.80;;
20298;SDS011;10308;42.688;23.256;2023-07-13T08:04:19;14.65;;;12.73;;
20298;SDS011;10308;42.688;23.256;2023-07-13T08:07:05;13.85;;;11.73;;
20298;SDS011;10308;42.688;23.256;2023-07-13T08:09:51;16.40;;;11.70;;
20298;SDS011;10308;42.688;23.256;2023-07-13T08:12:38;13.60;;;10.95;;
20298;SDS011;10308;42.688;23.256;2023-07-13T08:15:25;12.20;;;10.85;;
20298;SDS011;10308;42.688;23.256;2023-07-13T08:18:11;13.10;;;10.55;;
20298;SDS011;10308;42.688;23.256;2023-07-13T08:21:04;13.10;;;10.93;;
20298;SDS011;10308;42.688;23.256;2023-07-13T08:23:51;11.88;;;10.65;;
20298;SDS011;10308;42.688;23.256;2023-07-13T08:26:36;13.73;;;10.65;;
20298;SDS011;10308;42.688;23.256;2023-07-13T08:29:21;10.60;;;9.50;;
20298;SDS011;10308;42.688;23.256;2023-07-13T08:32:09;15.20;;;10.23;;
20298;SDS011;10308;42.688;23.256;2023-07-13T08:34:54;11.55;;;9.93;;
20298;SDS011;10308;42.688;23.256;2023-07-13T08:37:44;11.65;;;10.35;;
20298;SDS011;10308;42.688;23.256;2023-07-13T08:40:30;10.38;;;9.38;;
20298;SDS011;10308;42.688;23.256;2023-07-13T08:43:17;11.00;;;9.90;;
20298;SDS011;10308;42.688;23.256;2023-07-13T08:46:06;10.40;;;9.40;;
20298;SDS011;10308;42.688;23.256;2023-07-13T08:48:56;12.38;;;9.50;;
20298;SDS011;10308;42.688;23.256;2023-07-13T08:51:44;11.27;;;9.57;;
20298;SDS011;10308;42.688;23.256;2023-07-13T08:54:32;10.88;;;9.80;;
20298;SDS011;10308;42.688;23.256;2023-07-13T08:57:24;10.00;;;9.10;;
20298;SDS011;10308;42.688;23.256;2023-07-13T09:00:15;12.00;;;9.88;;
20298;SDS011;10308;42.688;23.256;2023-07-13T09:03:01;11.60;;;9.68;;
20298;SDS011;10308;42.688;23.256;2023-07-13T09:05:49;11.95;;;10.55;;
20298;SDS011;10308;42.688;23.256;2023-07-13T09:08:39;11.05;;;10.00;;
20298;SDS011;10308;42.688;23.256;2023-07-13T09:11:41;11.77;;;10.60;;
20298;SDS011;10308;42.688;23.256;2023-07-13T09:14:35;13.75;;;11.18;;
20298;SDS011;10308;42.688;23.256;2023-07-13T09:17:29;11.00;;;9.90;;
20298;SDS011;10308;42.688;23.256;2023-07-13T09:20:21;11.02;;;9.90;;
20298;SDS011;10308;42.688;23.256;2023-07-13T09:23:11;9.70;;;8.75;;
20298;SDS011;10308;42.688;23.256;2023-07-13T09:26:01;8.85;;;7.95;;
20298;SDS011;10308;42.688;23.256;2023-07-13T09:28:57;9.45;;;7.70;;
20298;SDS011;10308;42.688;23.256;2023-07-13T09:31:45;9.23;;;7.40;;
20298;SDS011;10308;42.688;23.256;2023-07-13T09:34:37;8.07;;;7.28;;
20298;SDS011;10308;42.688;23.256;2023-07-13T09:37:24;7.47;;;6.82;;
20298;SDS011;10308;42.688;23.256;2023-07-13T09:40:17;6.45;;;5.43;;
20298;SDS011;10308;42.688;23.256;2023-07-13T09:43:07;6.35;;;5.53;;
20298;SDS011;10308;42.688;23.256;2023-07-13T09:45:58;6.50;;;5.30;;
20298;SDS011;10308;42.688;23.256;2023-07-13T09:48:46;6.25;;;5.45;;
20298;SDS011;10308;42.688;23.256;2023-07-13T09:51:33;5.80;;;4.68;;
20298;SDS011;10308;42.688;23.256;2023-07-13T09:54:19;7.90;;;5.10;;
20298;SDS011;10308;42.688;23.256;2023-07-13T09:57:12;7.90;;;5.22;;
20298;SDS011;10308;42.688;23.256;2023-07-13T10:00:01;6.13;;;5.45;;
20298;SDS011;10308;42.688;23.256;2023-07-13T10:02:49;5.63;;;5.05;;
20298;SDS011;10308;42.688;23.256;2023-07-13T10:05:44;6.30;;;5.60;;
20298;SDS011;10308;42.688;23.256;2023-07-13T10:08:32;5.93;;;5.30;;
20298;SDS011;10308;42.688;23.256;2023-07-13T10:11:21;7.15;;;5.38;;
20298;SDS011;10308;42.688;23.256;2023-07-13T10:14:10;6.03;;;5.45;;
20298;SDS011;10308;42.688;23.256;2023-07-13T10:16:58;6.85;;;5.28;;
20298;SDS011;10308;42.688;23.256;2023-07-13T10:19:50;7.93;;;5.75;;
20298;SDS011;10308;42.688;23.256;2023-07-13T10:22:37;5.97;;;5.38;;
20298;SDS011;10308;42.688;23.256;2023-07-13T10:25:25;6.22;;;5.57;;
20298;SDS011;10308;42.688;23.256;2023-07-13T10:28:26;5.70;;;5.10;;
20298;SDS011;10308;42.688;23.256;2023-07-13T10:31:15;6.72;;;5.30;;
20298;SDS011;10308;42.688;23.256;2023-07-13T10:34:02;8.63;;;5.50;;
20298;SDS011;10308;42.688;23.256;2023-07-13T10:36:51;7.47;;;5.50;;
20298;SDS011;10308;42.688;23.256;2023-07-13T10:39:37;5.80;;;5.30;;
20298;SDS011;10308;42.688;23.256;2023-07-13T10:42:25;6.97;;;4.70;;
20298;SDS011;10308;42.688;23.256;2023-07-13T10:45:13;5.22;;;4.72;;
20298;SDS011;10308;42.688;23.256;2023-07-13T10:48:01;5.40;;;4.90;;
20298;SDS011;10308;42.688;23.256;2023-07-13T10:50:48;7.72;;;4.93;;
20298;SDS011;10308;42.688;23.256;2023-07-13T10:53:39;7.15;;;5.13;;
20298;SDS011;10308;42.688;23.256;2023-07-13T10:56:28;6.88;;;5.65;;
20298;SDS011;10308;42.688;23.256;2023-07-13T10:59:16;7.88;;;5.68;;
20298;SDS011;10308;42.688;23.256;2023-07-13T11:02:10;5.90;;;4.97;;
20298;SDS011;10308;42.688;23.256;2023-07-13T11:05:01;6.53;;;5.60;;
20298;SDS011;10308;42.688;23.256;2023-07-13T11:08:13;5.95;;;4.85;;
20298;SDS011;10308;42.688;23.256;2023-07-13T11:14:26;6.80;;;5.68;;
20298;SDS011;10308;42.688;23.256;2023-07-13T11:17:33;7.90;;;5.53;;
20298;SDS011;10308;42.688;23.256;2023-07-13T11:20:33;6.43;;;5.72;;
20298;SDS011;10308;42.688;23.256;2023-07-13T11:23:29;8.23;;;5.78;;
20298;SDS011;10308;42.688;23.256;2023-07-13T11:29:37;6.22;;;5.55;;
20298;SDS011;10308;42.688;23.256;2023-07-13T11:32:25;6.95;;;6.30;;
20298;SDS011;10308;42.688;23.256;2023-07-13T11:35:21;6.35;;;5.82;;
20298;SDS011;10308;42.688;23.256;2023-07-13T11:38:12;6.95;;;6.30;;
20298;SDS011;10308;42.688;23.256;2023-07-13T11:41:02;7.55;;;6.07;;
20298;SDS011;10308;42.688;23.256;2023-07-13T11:43:52;8.00;;;6.35;;
20298;SDS011;10308;42.688;23.256;2023-07-13T11:46:54;6.15;;;5.55;;
20298;SDS011;10308;42.688;23.256;2023-07-13T11:49:41;7.72;;;6.38;;
20298;SDS011;10308;42.688;23.256;2023-07-13T11:52:32;6.72;;;6.07;;
20298;SDS011;10308;42.688;23.256;2023-07-13T11:55:21;6.70;;;5.78;;
20298;SDS011;10308;42.688;23.256;2023-07-13T11:58:10;6.30;;;5.75;;
20298;SDS011;10308;42.688;23.256;2023-07-13T12:00:59;6.30;;;5.35;;
20298;SDS011;10308;42.688;23.256;2023-07-13T12:03:49;8.32;;;5.72;;
20298;SDS011;10308;42.688;23.256;2023-07-13T12:06:35;6.78;;;5.60;;
20298;SDS011;10308;42.688;23.256;2023-07-13T12:09:26;5.75;;;5.22;;
20298;SDS011;10308;42.688;23.256;2023-07-13T12:12:12;8.57;;;5.35;;
20298;SDS011;10308;42.688;23.256;2023-07-13T12:15:00;6.88;;;5.18;;
20298;SDS011;10308;42.688;23.256;2023-07-13T12:17:52;7.70;;;5.28;;
20298;SDS011;10308;42.688;23.256;2023-07-13T12:20:41;6.90;;;5.15;;
20298;SDS011;10308;42.688;23.256;2023-07-13T12:23:28;6.57;;;5.07;;
20298;SDS011;10308;42.688;23.256;2023-07-13T12:26:02;6.30;;;5.03;;
20298;SDS011;10308;42.688;23.256;2023-07-13T12:28:32;6.95;;;5.82;;
20298;SDS011;10308;42.688;23.256;2023-07-13T12:31:02;5.65;;;5.13;;
20298;SDS011;10308;42.688;23.256;2023-07-13T12:33:35;6.95;;;4.88;;
20298;SDS011;10308;42.688;23.256;2023-07-13T12:36:05;7.40;;;5.45;;
20298;SDS011;10308;42.688;23.256;2023-07-13T12:38:34;6.85;;;4.72;;
20298;SDS011;10308;42.688;23.256;2023-07-13T12:41:02;6.57;;;5.22;;
20298;SDS011;10308;42.688;23.256;2023-07-13T12:43:33;6.13;;;5.13;;
20298;SDS011;10308;42.688;23.256;2023-07-13T12:46:14;6.65;;;4.85;;
20298;SDS011;10308;42.688;23.256;2023-07-13T12:48:47;6.85;;;5.05;;
20298;SDS011;10308;42.688;23.256;2023-07-13T12:51:17;6.68;;;5.03;;
20298;SDS011;10308;42.688;23.256;2023-07-13T12:53:50;7.65;;;5.05;;
20298;SDS011;10308;42.688;23.256;2023-07-13T12:56:21;6.15;;;5.03;;
20298;SDS011;10308;42.688;23.256;2023-07-13T12:58:50;7.07;;;5.45;;
20298;SDS011;10308;42.688;23.256;2023-07-13T13:01:22;6.15;;;4.82;;
20298;SDS011;10308;42.688;23.256;2023-07-13T13:03:56;7.75;;;5.05;;
20298;SDS011;10308;42.688;23.256;2023-07-13T13:06:25;6.93;;;5.30;;
20298;SDS011;10308;42.688;23.256;2023-07-13T13:08:55;5.78;;;4.95;;
20298;SDS011;10308;42.688;23.256;2023-07-13T13:11:25;7.15;;;5.22;;
20298;SDS011;10308;42.688;23.256;2023-07-13T13:13:57;7.35;;;4.88;;
20298;SDS011;10308;42.688;23.256;2023-07-13T13:16:29;8.95;;;5.25;;
20298;SDS011;10308;42.688;23.256;2023-07-13T13:19:01;6.93;;;5.05;;
20298;SDS011;10308;42.688;23.256;2023-07-13T13:21:36;8.82;;;4.88;;
20298;SDS011;10308;42.688;23.256;2023-07-13T13:24:08;5.13;;;4.53;;
20298;SDS011;10308;42.688;23.256;2023-07-13T13:26:38;6.78;;;4.80;;
20298;SDS011;10308;42.688;23.256;2023-07-13T13:29:10;6.40;;;4.93;;
20298;SDS011;10308;42.688;23.256;2023-07-13T13:31:39;6.68;;;5.03;;
20298;SDS011;10308;42.688;23.256;2023-07-13T13:34:09;5.85;;;4.38;;
20298;SDS011;10308;42.688;23.256;2023-07-13T13:36:38;6.65;;;4.38;;
20298;SDS011;10308;42.688;23.256;2023-07-13T13:39:05;7.95;;;5.05;;
20298;SDS011;10308;42.688;23.256;2023-07-13T13:41:44;7.15;;;4.68;;
20298;SDS011;10308;42.688;23.256;2023-07-13T13:44:14;6.38;;;5.10;;
20298;SDS011;10308;42.688;23.256;2023-07-13T13:46:44;5.80;;;5.18;;
20298;SDS011;10308;42.688;23.256;2023-07-13T13:49:21;7.80;;;5.65;;
20298;SDS011;10308;42.688;23.256;2023-07-13T13:51:50;5.82;;;4.95;;
20298;SDS011;10308;42.688;23.256;2023-07-13T13:54:21;7.35;;;5.68;;
20298;SDS011;10308;42.688;23.256;2023-07-13T13:56:50;7.05;;;5.22;;
20298;SDS011;10308;42.688;23.256;2023-07-13T13:59:22;8.65;;;5.68;;
20298;SDS011;10308;42.688;23.256;2023-07-13T14:01:51;5.68;;;4.78;;
20298;SDS011;10308;42.688;23.256;2023-07-13T14:04:23;6.68;;;5.10;;
20298;SDS011;10308;42.688;23.256;2023-07-13T14:06:52;6.07;;;5.47;;
20298;SDS011;10308;42.688;23.256;2023-07-13T14:09:22;5.72;;;5.03;;
20298;SDS011;10308;42.688;23.256;2023-07-13T14:11:51;6.93;;;5.13;;
20298;SDS011;10308;42.688;23.256;2023-07-13T14:14:20;8.82;;;5.47;;
20298;SDS011;10308;42.688;23.256;2023-07-13T14:16:50;5.65;;;5.15;;
20298;SDS011;10308;42.688;23.256;2023-07-13T14:19:20;6.78;;;5.00;;
20298;SDS011;10308;42.688;23.256;2023-07-13T14:21:52;6.93;;;4.90;;
20298;SDS011;10308;42.688;23.256;2023-07-13T14:24:20;8.20;;;5.25;;
20298;SDS011;10308;42.688;23.256;2023-07-13T14:26:48;8.32;;;5.28;;
20298;SDS011;10308;42.688;23.256;2023-07-13T14:29:17;7.25;;;5.93;;
20298;SDS011;10308;42.688;23.256;2023-07-13T14:31:44;6.22;;;5.47;;
20298;SDS011;10308;42.688;23.256;2023-07-13T14:34:13;6.25;;;5.47;;
20298;SDS011;10308;42.688;23.256;2023-07-13T14:36:44;7.75;;;5.22;;
20298;SDS011;10308;42.688;23.256;2023-07-13T14:39:18;6.53;;;5.38;;
20298;SDS011;10308;42.688;23.256;2023-07-13T14:41:49;8.38;;;5.45;;
20298;SDS011;10308;42.688;23.256;2023-07-13T14:44:19;9.57;;;5.90;;
20298;SDS011;10308;42.688;23.256;2023-07-13T14:46:51;6.63;;;5.32;;
20298;SDS011;10308;42.688;23.256;2023-07-13T14:49:23;7.22;;;5.25;;
20298;SDS011;10308;42.688;23.256;2023-07-13T14:51:52;9.40;;;5.90;;
20298;SDS011;10308;42.688;23.256;2023-07-13T14:54:25;8.55;;;5.53;;
20298;SDS011;10308;42.688;23.256;2023-07-13T14:56:54;7.95;;;5.72;;
20298;SDS011;10308;42.688;23.256;2023-07-13T14:59:23;8.25;;;5.75;;
20298;SDS011;10308;42.688;23.256;2023-07-13T15:01:51;8.30;;;5.40;;
20298;SDS011;10308;42.688;23.256;2023-07-13T15:04:20;8.90;;;5.68;;
20298;SDS011;10308;42.688;23.256;2023-07-13T15:06:56;6.70;;;5.47;;
20298;SDS011;10308;42.688;23.256;2023-07-13T15:09:26;8.00;;;6.07;;
20298;SDS011;10308;42.688;23.256;2023-07-13T15:11:55;7.57;;;5.72;;
20298;SDS011;10308;42.688;23.256;2023-07-13T15:14:23;8.82;;;5.63;;
20298;SDS011;10308;42.688;23.256;2023-07-13T15:16:51;9.65;;;5.80;;
20298;SDS011;10308;42.688;23.256;2023-07-13T15:19:22;7.35;;;5.75;;
20298;SDS011;10308;42.688;23.256;2023-07-13T15:21:50;8.13;;;5.80;;
20298;SDS011;10308;42.688;23.256;2023-07-13T15:24:20;6.47;;;5.30;;
20298;SDS011;10308;42.688;23.256;2023-07-13T15:26:50;6.65;;;5.40;;
20298;SDS011;10308;42.688;23.256;2023-07-13T15:29:18;6.70;;;5.65;;
20298;SDS011;10308;42.688;23.256;2023-07-13T15:31:46;7.50;;;5.22;;
20298;SDS011;10308;42.688;23.256;2023-07-13T15:34:24;6.95;;;5.20;;
20298;SDS011;10308;42.688;23.256;2023-07-13T15:36:53;7.68;;;5.50;;
20298;SDS011;10308;42.688;23.256;2023-07-13T15:39:24;6.03;;;5.03;;
20298;SDS011;10308;42.688;23.256;2023-07-13T15:41:57;7.72;;;5.07;;
20298;SDS011;10308;42.688;23.256;2023-07-13T15:44:26;7.20;;;5.10;;
20298;SDS011;10308;42.688;23.256;2023-07-13T15:46:57;6.10;;;5.15;;
20298;SDS011;10308;42.688;23.256;2023-07-13T15:49:27;6.00;;;5.30;;
20298;SDS011;10308;42.688;23.256;2023-07-13T15:51:55;6.78;;;5.38;;
20298;SDS011;10308;42.688;23.256;2023-07-13T15:54:23;7.35;;;5.47;;
20298;SDS011;10308;42.688;23.256;2023-07-13T15:56:52;7.78;;;5.32;;
20298;SDS011;10308;42.688;23.256;2023-07-13T15:59:24;7.40;;;5.30;;
20298;SDS011;10308;42.688;23.256;2023-07-13T16:01:52;5.88;;;5.38;;
20298;SDS011;10308;42.688;23.256;2023-07-13T16:04:20;8.00;;;5.07;;
20298;SDS011;10308;42.688;23.256;2023-07-13T16:06:48;6.70;;;5.10;;
20298;SDS011;10308;42.688;23.256;2023-07-13T16:09:18;9.50;;;5.80;;
20298;SDS011;10308;42.688;23.256;2023-07-13T16:11:48;5.78;;;5.15;;